Impacts METAR Board
IDs:

KBTR - Baton Rouge/Ryan Fld, LA, US

Updated at: 0700 UTC 24 Jan 2019
Potential Impact None Slight Moderate High
Time 23/19Z 23/20Z 23/21Z 23/22Z 23/23Z 24/00Z 24/01Z 24/02Z 24/03Z 24/04Z 24/05Z 24/06Z 24/07Z
Temp52 51 49 45 40 39 38 38 37 37 36 34 34
Dewpt51 50 48 43 38 36 35 34 33 30 29 29 29
Altim29.92 29.90 29.90 29.92 29.92 29.97 30.02 30.01 30.04 30.07 30.07 30.07 30.07
VIS7 2.5 4 10 10 10 10 10 10 10 10 10 10
CIG8 8 4 5 5 5 11 12 15 18 -- -- --
CoverOVCOVCOVCOVCOVCOVCOVCOVCOVCOVCCLRCLRCLR
FltCatIFRIFRLIFRIFRIFRIFRMVFRMVFRMVFRMVFRVFRVFRVFR
WX--RA BR-RA BR-RA-RA BR----------------
WDir0290290280320310300300310320320310310
WSpd4 3 9 13 6 8 12 10 12 11 7 4 4
WGst-- -- -- 22 18 -- 19 18 20 18 -- -- --
Raw hourly METARs
KBTR 231853Z VRB04KT 7SM BKN008 BKN012 OVC050 11/11 A2992 RMK AO2 RAE24 CIG 006V010 SLP132 P0002 T01110106
KBTR 231953Z 29003KT 2 1/2SM RA BR BKN008 BKN011 OVC055 11/10 A2990 RMK AO2 RAB19 SLP126 P0002 T01060100
KBTR 232053Z 29009KT 4SM -RA BR OVC004 09/09 A2990 RMK AO2 SLP124 P0005 60009 T00940089 56008
KBTR 232153Z 28013G22KT 10SM -RA OVC005 07/06 A2992 RMK AO2 RAE19B35 CIG 004V008 SLP132 P0001 T00720061
KBTR 232253Z COR 32006G18KT 10SM -RA BR OVC005 04/03 A2992 RMK AO2 PK WND 29027/2225 RAE2154B14 SLP132 P0000 T00440033
KBTR 232353Z 31008KT 10SM OVC005 04/02 A2997 RMK AO2 RAE22 SLP148 P0000 60010 T00390022 10111 20039 53024
KBTR 240053Z 30012G19KT 10SM OVC011 03/02 A3002 RMK AO2 SLP164 T00330017
KBTR 240153Z 30010G18KT 10SM OVC012 03/01 A3001 RMK AO2 SLP161 T00330011
KBTR 240253Z 31012G20KT 10SM OVC015 03/01 A3004 RMK AO2 SLP172 T00280006 51023
KBTR 240353Z 32011G18KT 10SM OVC018 03/M01 A3007 RMK AO2 SLP182 T00281011
KBTR 240453Z 32007KT 10SM CLR 02/M02 A3007 RMK AO2 SLP184 T00221017
KBTR 240553Z AUTO 31004KT 10SM CLR 01/M02 A3007 RMK AO2 SLP182 T00111017 10039 20011 401940011 50010
KBTR 240653Z AUTO 31004KT 10SM CLR 01/M02 A3007 RMK AO2 SLP183 T00111017



Page loaded:  07:33 UTC  |   11:33 PM Pacific  |   12:33 AM Mountain  |   01:33 AM Central  |   02:33 AM Eastern

 

ADVISORIES

FORECASTS

FORECASTS

OBSERVATIONS

USER TOOLS

ABOUT US